createdAt,value
2019-01-08T00:00:22.069Z,47.29
2019-01-08T00:02:56.359Z,47.62
2019-01-08T00:05:28.972Z,48.06
2019-01-08T00:08:03.045Z,48.19
2019-01-08T00:10:36.270Z,48.19
2019-01-08T00:13:09.479Z,47.66
2019-01-08T00:15:43.027Z,47.26
2019-01-08T00:18:16.270Z,46.91
2019-01-08T00:20:52.175Z,47.86
2019-01-08T00:23:25.698Z,47.59
2019-01-08T00:25:58.675Z,47.87
2019-01-08T00:28:32.041Z,47.37
2019-01-08T00:31:05.001Z,47.38
2019-01-08T00:33:37.956Z,47.17
2019-01-08T00:36:10.711Z,46.43
2019-01-08T00:38:44.716Z,46.47
2019-01-08T00:41:18.321Z,46.47
2019-01-08T00:43:51.607Z,45.37
2019-01-08T00:46:24.627Z,45.27
2019-01-08T00:48:58.594Z,44.85
2019-01-08T00:51:32.419Z,44.87
2019-01-08T00:54:06.910Z,44.95
2019-01-08T00:56:39.748Z,43.77
2019-01-08T00:59:13.687Z,44.66
2019-01-08T01:01:46.651Z,43.62
2019-01-08T01:04:19.584Z,43.91
2019-01-08T01:06:52.914Z,43.26
2019-01-08T01:09:26.148Z,43.57
2019-01-08T01:11:59.410Z,42.95
2019-01-08T01:14:33.469Z,42.46
2019-01-08T01:17:06.532Z,42.35
2019-01-08T01:19:39.689Z,41.65
2019-01-08T01:22:13.869Z,41.82
2019-01-08T01:24:46.915Z,41.69
2019-01-08T01:27:19.985Z,41.63
2019-01-08T01:29:55.809Z,41.63
2019-01-08T01:32:28.903Z,42.14
2019-01-08T01:35:01.798Z,42.33
2019-01-08T01:37:34.691Z,41.99
2019-01-08T01:40:08.392Z,41.69
2019-01-08T01:42:41.610Z,41.28
2019-01-08T01:45:15.086Z,41.79
2019-01-08T01:47:47.937Z,41.88
2019-01-08T01:50:21.254Z,41.08
2019-01-08T01:52:54.137Z,41.02
2019-01-08T01:55:27.160Z,41.21
2019-01-08T01:58:00.361Z,40.88
2019-01-08T02:00:33.436Z,41.02
2019-01-08T02:03:06.488Z,40.28
2019-01-08T02:05:39.870Z,40.08
2019-01-08T02:08:12.851Z,39.28
2019-01-08T02:10:45.890Z,39.03
2019-01-08T02:13:18.890Z,39.10
2019-01-08T02:15:51.909Z,38.32
2019-01-08T02:18:25.047Z,38.60
2019-01-08T02:20:57.999Z,38.22
2019-01-08T02:23:32.388Z,38.15
2019-01-08T02:26:05.535Z,38.11
2019-01-08T02:28:38.388Z,39.32
2019-01-08T02:31:12.487Z,38.27
2019-01-08T02:33:45.715Z,37.53
2019-01-08T02:36:18.638Z,36.79
2019-01-08T02:38:51.812Z,36.85
2019-01-08T02:41:24.898Z,36.58
2019-01-08T02:43:57.931Z,36.66
2019-01-08T02:46:31.107Z,36.20
2019-01-08T02:49:04.296Z,37.03
2019-01-08T02:51:37.549Z,35.97
2019-01-08T02:54:10.469Z,37.20
2019-01-08T02:56:43.636Z,36.43
2019-01-08T02:59:24.871Z,35.34
2019-01-08T03:01:52.383Z,35.19
2019-01-08T03:04:25.479Z,35.20
2019-01-08T03:06:58.511Z,35.86
2019-01-08T03:09:32.948Z,36.37
2019-01-08T03:12:06.062Z,35.63
2019-01-08T03:14:39.211Z,35.57
2019-01-08T03:17:12.557Z,34.68
2019-01-08T03:19:45.683Z,34.68
2019-01-08T03:22:19.044Z,34.12
2019-01-08T03:24:52.048Z,34.39
2019-01-08T03:27:25.281Z,33.33
2019-01-08T03:29:58.328Z,33.71
2019-01-08T03:32:33.576Z,34.23
2019-01-08T03:35:07.487Z,33.37
2019-01-08T03:37:40.931Z,33.15
2019-01-08T03:40:14.304Z,33.11
2019-01-08T03:42:47.437Z,32.67
2019-01-08T03:45:20.474Z,33.02
2019-01-08T03:47:53.715Z,32.92
2019-01-08T03:50:27.266Z,32.88
2019-01-08T03:53:00.962Z,34.25
2019-01-08T03:55:34.411Z,33.93
2019-01-08T03:58:08.943Z,33.84
2019-01-08T04:00:42.110Z,33.48
2019-01-08T04:03:15.502Z,33.54
2019-01-08T04:05:49.756Z,32.79
2019-01-08T04:08:22.973Z,33.94
2019-01-08T04:10:56.236Z,33.81
2019-01-08T04:13:30.386Z,33.82
2019-01-08T04:16:05.034Z,33.92
2019-01-08T04:18:38.135Z,33.17
2019-01-08T04:21:11.153Z,33.72
2019-01-08T04:23:44.401Z,33.67
2019-01-08T04:26:18.136Z,33.02
2019-01-08T04:28:52.509Z,33.04
2019-01-08T04:31:25.864Z,33.52
2019-01-08T04:33:58.689Z,33.07
2019-01-08T04:36:32.855Z,33.40
2019-01-08T04:39:06.379Z,33.16
2019-01-08T04:41:39.811Z,33.32
2019-01-08T04:44:13.275Z,33.31
2019-01-08T04:46:46.480Z,33.59
2019-01-08T04:49:19.678Z,33.71
2019-01-08T04:51:54.001Z,32.66
2019-01-08T04:54:27.067Z,33.33
2019-01-08T04:57:00.234Z,33.44
2019-01-08T04:59:34.184Z,33.30
2019-01-08T05:02:07.205Z,32.68
2019-01-08T05:04:40.392Z,33.46
2019-01-08T05:07:14.051Z,33.40
2019-01-08T05:09:47.074Z,33.42
2019-01-08T05:12:20.739Z,33.53
2019-01-08T05:14:53.828Z,33.06
2019-01-08T05:17:27.437Z,33.33
2019-01-08T05:20:01.578Z,33.30
2019-01-08T05:22:35.436Z,33.04
2019-01-08T05:25:08.807Z,33.29
2019-01-08T05:27:41.782Z,33.12
2019-01-08T05:30:15.046Z,33.24
2019-01-08T05:32:48.792Z,33.58
2019-01-08T05:35:21.831Z,33.12
2019-01-08T05:37:55.790Z,33.47
2019-01-08T05:40:30.089Z,33.51
2019-01-08T05:43:03.337Z,34.58
2019-01-08T05:45:36.608Z,33.72
2019-01-08T05:48:11.593Z,33.75
2019-01-08T05:50:44.665Z,33.72
2019-01-08T05:53:17.546Z,33.54
2019-01-08T05:55:50.705Z,33.42
2019-01-08T05:58:23.413Z,32.98
2019-01-08T06:00:56.598Z,33.18
2019-01-08T06:03:30.429Z,33.34
2019-01-08T06:06:04.752Z,33.77
2019-01-08T06:08:37.780Z,33.48
2019-01-08T06:11:11.011Z,33.52
2019-01-08T06:13:52.507Z,33.38
2019-01-08T06:16:25.295Z,33.33
2019-01-08T06:18:58.462Z,33.47
2019-01-08T06:21:31.857Z,33.72
2019-01-08T06:24:05.371Z,33.62
2019-01-08T06:26:41.975Z,32.88
2019-01-08T06:29:15.458Z,33.47
2019-01-08T06:31:48.463Z,33.33
2019-01-08T06:34:22.483Z,33.25
2019-01-08T06:36:55.504Z,33.71
2019-01-08T06:39:29.855Z,34.24
2019-01-08T06:42:03.136Z,33.12
2019-01-08T06:44:37.524Z,33.63
2019-01-08T06:47:11.515Z,33.76
2019-01-08T06:49:44.531Z,33.82
2019-01-08T06:52:17.747Z,34.38
2019-01-08T06:54:50.979Z,34.02
2019-01-08T06:57:23.831Z,34.09
2019-01-08T06:59:57.237Z,34.29
2019-01-08T07:02:30.398Z,33.69
2019-01-08T07:05:03.915Z,34.28
2019-01-08T07:07:37.639Z,34.12
2019-01-08T07:10:11.251Z,34.28
2019-01-08T07:12:44.534Z,34.06
2019-01-08T07:15:19.129Z,34.24
2019-01-08T07:17:53.491Z,34.41
2019-01-08T07:20:27.599Z,34.69
2019-01-08T07:23:01.173Z,34.30
2019-01-08T07:25:41.968Z,33.97
2019-01-08T07:28:10.102Z,34.33
2019-01-08T07:30:44.660Z,34.48
2019-01-08T07:33:18.912Z,35.16
2019-01-08T07:35:52.772Z,34.55
2019-01-08T07:38:25.755Z,34.37
2019-01-08T07:40:59.950Z,35.00
2019-01-08T07:43:35.332Z,35.06
2019-01-08T07:46:08.798Z,34.60
2019-01-08T07:48:41.875Z,35.53
2019-01-08T07:51:15.368Z,35.38
2019-01-08T07:53:49.590Z,35.40
2019-01-08T07:56:23.810Z,35.16
2019-01-08T07:58:57.062Z,35.67
2019-01-08T08:01:30.278Z,35.96
2019-01-08T08:04:03.008Z,35.14
2019-01-08T08:06:36.323Z,35.20
2019-01-08T08:09:09.651Z,35.70
2019-01-08T08:11:43.933Z,35.69
2019-01-08T08:14:17.744Z,35.37
2019-01-08T08:16:51.363Z,36.03
2019-01-08T08:19:24.533Z,35.70
2019-01-08T08:21:58.415Z,35.68
2019-01-08T08:24:31.749Z,36.12
2019-01-08T08:27:05.129Z,35.85
2019-01-08T08:29:38.562Z,35.42
2019-01-08T08:32:11.935Z,35.67
2019-01-08T08:34:46.732Z,36.07
2019-01-08T08:37:20.631Z,36.20
2019-01-08T08:39:53.964Z,35.95
2019-01-08T08:42:27.131Z,36.12
2019-01-08T08:45:00.727Z,36.03
2019-01-08T08:47:33.991Z,36.32
2019-01-08T08:50:08.034Z,36.75
2019-01-08T08:52:41.315Z,36.70
2019-01-08T08:55:14.771Z,36.61
2019-01-08T08:57:48.104Z,36.65
2019-01-08T09:00:21.328Z,36.73
2019-01-08T09:02:56.223Z,36.98
2019-01-08T09:05:29.417Z,36.92
2019-01-08T09:08:02.433Z,37.29
2019-01-08T09:10:35.801Z,37.30
2019-01-08T09:13:10.198Z,37.21
2019-01-08T09:15:43.916Z,37.26
2019-01-08T09:18:17.372Z,37.54
2019-01-08T09:20:52.636Z,37.50
2019-01-08T09:23:26.072Z,37.31
2019-01-08T09:25:59.802Z,37.92
2019-01-08T09:28:32.970Z,38.48
2019-01-08T09:31:06.145Z,38.73
2019-01-08T09:33:41.308Z,38.54
2019-01-08T09:36:14.797Z,38.45
2019-01-08T09:38:47.956Z,38.93
2019-01-08T09:41:21.576Z,39.08
2019-01-08T09:43:55.866Z,39.68
2019-01-08T09:46:30.294Z,39.41
2019-01-08T09:49:04.780Z,40.34
2019-01-08T09:51:38.124Z,40.01
2019-01-08T09:54:11.428Z,40.25
2019-01-08T09:56:44.976Z,40.21
2019-01-08T09:59:23.836Z,40.47
2019-01-08T10:01:58.536Z,39.97
2019-01-08T10:04:32.486Z,40.29
2019-01-08T10:07:05.710Z,40.36
2019-01-08T10:09:44.198Z,40.64
2019-01-08T10:12:18.896Z,40.57
2019-01-08T10:14:53.231Z,40.77
2019-01-08T10:17:29.730Z,41.20
2019-01-08T10:20:04.379Z,41.50
2019-01-08T10:22:41.860Z,41.71
2019-01-08T10:25:34.014Z,41.79
2019-01-08T10:28:09.184Z,41.38
2019-01-08T10:30:44.553Z,41.45
2019-01-08T10:33:19.082Z,41.31
2019-01-08T10:35:53.853Z,41.30
2019-01-08T10:38:27.893Z,41.18
2019-01-08T10:41:01.869Z,41.37
2019-01-08T10:43:37.789Z,41.23
2019-01-08T10:46:12.626Z,40.88
2019-01-08T10:48:50.864Z,41.01
2019-01-08T10:51:26.268Z,41.20
2019-01-08T10:54:01.956Z,41.08
2019-01-08T10:56:37.334Z,40.90
2019-01-08T10:59:11.424Z,41.13
2019-01-08T11:01:51.389Z,41.38
2019-01-08T11:04:26.438Z,41.26
2019-01-08T11:07:01.605Z,41.13
2019-01-08T11:09:37.579Z,40.74
2019-01-08T11:12:15.095Z,40.75
2019-01-08T11:14:49.791Z,40.96
2019-01-08T11:17:26.133Z,40.81
2019-01-08T11:20:00.188Z,40.81
2019-01-08T11:22:35.557Z,40.55
2019-01-08T11:25:15.907Z,40.57
2019-01-08T11:27:50.159Z,41.91
2019-01-08T11:30:28.068Z,41.91
2019-01-08T11:33:02.848Z,41.97
2019-01-08T11:35:42.523Z,41.54
2019-01-08T11:38:18.724Z,40.87
2019-01-08T11:40:53.937Z,41.03
2019-01-08T11:43:30.284Z,42.10
2019-01-08T11:46:04.851Z,42.63
2019-01-08T11:48:41.421Z,41.88
2019-01-08T11:51:17.391Z,40.81
2019-01-08T11:53:52.021Z,40.55
2019-01-08T11:56:26.596Z,40.39
2019-01-08T11:59:06.471Z,40.39
2019-01-08T12:01:41.866Z,40.92
2019-01-08T12:04:18.727Z,40.75
2019-01-08T12:06:54.942Z,40.25
2019-01-08T12:09:30.560Z,40.09
2019-01-08T12:12:05.459Z,40.47
2019-01-08T12:14:41.845Z,40.47
2019-01-08T12:17:16.558Z,40.26
2019-01-08T12:19:51.488Z,40.17
2019-01-08T12:22:26.683Z,40.30
2019-01-08T12:25:03.239Z,40.77
2019-01-08T12:27:38.644Z,40.18
2019-01-08T12:30:13.981Z,40.47
2019-01-08T12:32:49.994Z,40.32
2019-01-08T12:35:24.542Z,41.09
2019-01-08T12:38:02.986Z,41.33
2019-01-08T12:40:37.978Z,41.12
2019-01-08T12:43:14.476Z,40.35
2019-01-08T12:45:49.060Z,40.72
2019-01-08T12:48:25.336Z,40.85
2019-01-08T12:51:00.132Z,40.38
2019-01-08T12:53:39.457Z,40.85
2019-01-08T12:56:18.897Z,40.57
2019-01-08T12:58:55.493Z,40.69
2019-01-08T13:01:32.232Z,40.48
2019-01-08T13:04:07.149Z,40.75
2019-01-08T13:06:43.535Z,40.54
2019-01-08T13:09:20.373Z,40.42
2019-01-08T13:11:57.375Z,39.81
2019-01-08T13:14:33.699Z,40.00
2019-01-08T13:17:11.760Z,40.74
2019-01-08T13:19:45.922Z,40.74
2019-01-08T13:22:25.121Z,40.33
2019-01-08T13:25:00.581Z,40.50
2019-01-08T13:27:36.624Z,40.13
2019-01-08T13:30:11.766Z,40.29
2019-01-08T13:32:46.564Z,40.14
2019-01-08T13:35:21.348Z,40.03
2019-01-08T13:37:55.919Z,40.40
2019-01-08T13:40:35.309Z,40.04
2019-01-08T13:43:08.220Z,40.24
2019-01-08T13:45:43.233Z,39.26
2019-01-08T13:48:18.994Z,39.51
2019-01-08T13:50:54.431Z,39.49
2019-01-08T13:53:28.181Z,39.25
2019-01-08T13:56:02.615Z,39.48
2019-01-08T13:58:36.900Z,39.44
2019-01-08T14:01:11.161Z,40.46
2019-01-08T14:03:45.406Z,40.01
2019-01-08T14:06:19.731Z,40.32
2019-01-08T14:08:54.505Z,39.89
2019-01-08T14:11:28.818Z,40.06
2019-01-08T14:14:07.118Z,40.46
2019-01-08T14:16:44.393Z,40.55
2019-01-08T14:19:19.928Z,41.36
2019-01-08T14:21:54.131Z,39.66
2019-01-08T14:24:28.856Z,39.46
2019-01-08T14:27:11.576Z,40.05
2019-01-08T14:29:38.959Z,39.71
2019-01-08T14:32:13.360Z,40.06
2019-01-08T14:34:48.126Z,39.30
2019-01-08T14:37:23.962Z,39.86
2019-01-08T14:39:59.174Z,39.98
2019-01-08T14:42:33.375Z,39.80
2019-01-08T14:45:08.404Z,40.12
2019-01-08T14:47:44.194Z,39.57
2019-01-08T14:50:18.483Z,39.94
2019-01-08T14:52:53.870Z,39.54
2019-01-08T14:55:27.909Z,40.05
2019-01-08T14:58:01.813Z,40.04
2019-01-08T15:00:35.827Z,40.37
2019-01-08T15:03:10.444Z,40.95
2019-01-08T15:05:46.258Z,40.54
2019-01-08T15:08:20.048Z,39.93
2019-01-08T15:10:53.628Z,40.85
2019-01-08T15:13:27.688Z,40.16
2019-01-08T15:16:01.344Z,40.03
2019-01-08T15:18:35.243Z,40.70
2019-01-08T15:21:08.810Z,40.17
2019-01-08T15:23:42.620Z,40.08
2019-01-08T15:26:16.949Z,40.68
2019-01-08T15:28:51.192Z,40.06
2019-01-08T15:31:24.861Z,40.06
2019-01-08T15:34:02.879Z,39.77
2019-01-08T15:36:36.888Z,40.31
2019-01-08T15:39:11.018Z,40.93
2019-01-08T15:41:54.583Z,40.28
2019-01-08T15:44:29.906Z,40.19
2019-01-08T15:47:07.687Z,40.33
2019-01-08T15:49:42.005Z,40.99
2019-01-08T15:52:15.903Z,40.69
2019-01-08T15:54:49.867Z,41.33
2019-01-08T15:57:23.423Z,40.39
2019-01-08T15:59:57.224Z,41.00
2019-01-08T16:02:31.135Z,41.00
2019-01-08T16:05:05.039Z,40.59
2019-01-08T16:07:39.973Z,40.71
2019-01-08T16:10:13.876Z,41.11
2019-01-08T16:12:47.931Z,41.47
2019-01-08T16:15:22.897Z,40.81
2019-01-08T16:18:17.164Z,41.27
2019-01-08T16:20:51.003Z,41.62
2019-01-08T16:23:24.827Z,41.18
2019-01-08T16:25:59.018Z,40.92
2019-01-08T16:28:32.482Z,40.94
2019-01-08T16:31:05.688Z,41.32
2019-01-08T16:33:40.010Z,41.67
2019-01-08T16:36:13.798Z,41.75
2019-01-08T16:38:47.553Z,41.94
2019-01-08T16:41:21.523Z,42.01
2019-01-08T16:43:55.092Z,42.14
2019-01-08T16:46:29.087Z,41.57
2019-01-08T16:49:04.059Z,41.86
2019-01-08T16:51:38.455Z,41.25
2019-01-08T16:54:12.236Z,42.30
2019-01-08T16:56:45.365Z,41.79
2019-01-08T16:59:19.487Z,41.99
2019-01-08T17:01:52.560Z,41.12
2019-01-08T17:04:25.732Z,41.79
2019-01-08T17:06:58.804Z,41.47
2019-01-08T17:09:31.971Z,41.58
2019-01-08T17:12:06.320Z,41.68
2019-01-08T17:14:39.356Z,41.41
2019-01-08T17:17:13.477Z,41.50
2019-01-08T17:19:47.841Z,41.49
2019-01-08T17:22:20.898Z,41.06
2019-01-08T17:24:54.242Z,41.22
2019-01-08T17:27:27.285Z,41.18
2019-01-08T17:30:00.972Z,41.36
2019-01-08T17:32:33.887Z,40.98
2019-01-08T17:35:07.468Z,41.05
2019-01-08T17:37:40.502Z,41.47
2019-01-08T17:40:15.696Z,41.37
2019-01-08T17:42:48.819Z,40.54
2019-01-08T17:45:22.801Z,41.82
2019-01-08T17:47:56.769Z,41.16
2019-01-08T17:50:29.748Z,40.83
2019-01-08T17:53:03.490Z,40.77
2019-01-08T17:55:36.557Z,40.40
2019-01-08T17:58:39.575Z,40.38
2019-01-08T18:01:18.733Z,40.57
2019-01-08T18:03:51.755Z,39.88
2019-01-08T18:06:24.869Z,40.59
2019-01-08T18:08:58.131Z,40.98
2019-01-08T18:11:31.397Z,41.07
2019-01-08T18:14:04.827Z,41.42
2019-01-08T18:16:37.963Z,41.89
2019-01-08T18:19:10.939Z,41.97
2019-01-08T18:21:43.981Z,41.52
2019-01-08T18:24:17.908Z,41.47
2019-01-08T18:26:51.338Z,39.97
2019-01-08T18:29:25.466Z,40.79
2019-01-08T18:31:58.588Z,41.05
2019-01-08T18:34:31.751Z,41.34
2019-01-08T18:37:04.940Z,41.15
2019-01-08T18:39:39.063Z,40.87
2019-01-08T18:42:12.519Z,40.50
2019-01-08T18:44:45.679Z,40.64
2019-01-08T18:47:18.879Z,39.84
2019-01-08T18:49:52.036Z,40.11
2019-01-08T18:52:24.983Z,40.11
2019-01-08T18:54:58.174Z,40.17
2019-01-08T18:57:31.517Z,40.59
2019-01-08T19:00:04.824Z,40.53
2019-01-08T19:02:37.845Z,41.05
2019-01-08T19:05:10.997Z,40.96
2019-01-08T19:07:44.094Z,41.11
2019-01-08T19:10:18.615Z,41.30
2019-01-08T19:12:51.462Z,41.52
2019-01-08T19:15:24.434Z,41.36
2019-01-08T19:17:57.456Z,41.00
2019-01-08T19:20:30.775Z,40.56
2019-01-08T19:23:03.903Z,40.68
2019-01-08T19:25:36.979Z,40.89
2019-01-08T19:28:10.035Z,41.71
2019-01-08T19:30:43.006Z,42.26
2019-01-08T19:33:16.234Z,42.15
2019-01-08T19:35:49.198Z,41.78
2019-01-08T19:38:23.268Z,41.52
2019-01-08T19:40:56.188Z,40.80
2019-01-08T19:43:28.845Z,41.25
2019-01-08T19:46:02.165Z,40.89
2019-01-08T19:48:35.155Z,41.21
2019-01-08T19:51:08.148Z,40.87
2019-01-08T19:53:41.147Z,40.90
2019-01-08T19:56:14.229Z,40.79
2019-01-08T19:58:48.161Z,41.39
2019-01-08T20:01:21.567Z,41.50
2019-01-08T20:03:54.873Z,41.18
2019-01-08T20:06:27.878Z,40.98
2019-01-08T20:09:01.049Z,41.04
2019-01-08T20:11:35.674Z,40.44
2019-01-08T20:14:08.562Z,40.81
2019-01-08T20:16:41.679Z,40.23
2019-01-08T20:19:14.694Z,39.84
2019-01-08T20:21:47.697Z,39.46
2019-01-08T20:24:20.302Z,39.54
2019-01-08T20:26:54.395Z,40.38
2019-01-08T20:29:27.480Z,40.20
2019-01-08T20:32:00.526Z,39.96
2019-01-08T20:34:33.755Z,40.97
2019-01-08T20:37:06.695Z,40.43
2019-01-08T20:39:39.744Z,39.78
2019-01-08T20:42:12.709Z,40.12
2019-01-08T20:44:45.569Z,40.53
2019-01-08T20:47:18.550Z,40.38
2019-01-08T20:49:51.585Z,40.29
2019-01-08T20:52:24.586Z,40.78
2019-01-08T20:54:57.233Z,41.40
2019-01-08T20:57:30.118Z,41.09
2019-01-08T21:00:03.034Z,41.57
2019-01-08T21:02:37.202Z,41.27
2019-01-08T21:05:10.069Z,41.54
2019-01-08T21:07:42.995Z,41.06
2019-01-08T21:10:16.189Z,40.31
2019-01-08T21:12:50.113Z,40.49
2019-01-08T21:15:22.931Z,40.87
2019-01-08T21:17:55.574Z,40.22
2019-01-08T21:20:28.618Z,40.59
2019-01-08T21:23:01.602Z,40.80
2019-01-08T21:25:34.731Z,40.31
2019-01-08T21:28:07.901Z,40.87
2019-01-08T21:30:40.933Z,41.40
2019-01-08T21:33:13.832Z,41.46
2019-01-08T21:35:47.717Z,40.64
2019-01-08T21:38:21.732Z,40.82
2019-01-08T21:40:55.213Z,41.56
2019-01-08T21:43:28.487Z,40.87
2019-01-08T21:46:01.552Z,40.78
2019-01-08T21:48:34.835Z,40.60
2019-01-08T21:51:07.925Z,40.38
2019-01-08T21:53:41.023Z,41.37
2019-01-08T21:56:14.096Z,40.89
2019-01-08T21:58:47.305Z,41.33
2019-01-08T22:01:20.584Z,41.45
2019-01-08T22:03:54.036Z,41.01
2019-01-08T22:06:27.157Z,41.25
2019-01-08T22:09:01.640Z,41.61
2019-01-08T22:11:34.469Z,41.77
2019-01-08T22:14:08.327Z,41.85
2019-01-08T22:16:42.733Z,40.98
2019-01-08T22:19:26.960Z,41.02
2019-01-08T22:22:00.110Z,40.71
2019-01-08T22:24:33.158Z,41.41
2019-01-08T22:27:06.639Z,41.04
2019-01-08T22:29:40.728Z,41.01
2019-01-08T22:32:14.093Z,40.80
2019-01-08T22:34:47.042Z,40.30
2019-01-08T22:37:19.884Z,41.08
2019-01-08T22:39:54.249Z,40.74
2019-01-08T22:42:27.857Z,40.96
2019-01-08T22:45:01.127Z,41.05
2019-01-08T22:47:34.180Z,40.94
2019-01-08T22:50:09.706Z,41.24
2019-01-08T22:52:44.097Z,40.90
2019-01-08T22:55:17.414Z,41.12
2019-01-08T22:57:50.886Z,40.99
2019-01-08T23:00:25.695Z,41.21
2019-01-08T23:02:58.692Z,41.95
2019-01-08T23:05:31.947Z,41.62
2019-01-08T23:08:05.040Z,41.14
2019-01-08T23:10:39.928Z,40.55
2019-01-08T23:13:12.770Z,41.08
2019-01-08T23:15:45.639Z,40.41
2019-01-08T23:18:19.142Z,40.40
2019-01-08T23:20:52.954Z,40.54
2019-01-08T23:23:27.014Z,40.70
2019-01-08T23:26:00.316Z,40.44
2019-01-08T23:28:34.370Z,40.82
2019-01-08T23:31:08.218Z,41.33
2019-01-08T23:33:41.168Z,40.69
2019-01-08T23:36:14.057Z,40.69
2019-01-08T23:38:48.145Z,40.93
2019-01-08T23:41:21.239Z,40.84
2019-01-08T23:43:54.264Z,40.64
2019-01-08T23:46:27.367Z,40.54
2019-01-08T23:49:01.411Z,40.59
2019-01-08T23:51:34.843Z,40.83
2019-01-08T23:54:09.415Z,40.70
2019-01-08T23:56:43.097Z,40.68
2019-01-08T23:59:16.564Z,40.53
